createdAt,value
2022-12-01T00:01:40.887Z,100554.25
2022-12-01T00:04:14.402Z,100563.75
2022-12-01T00:06:45.978Z,100560.34
2022-12-01T00:09:31.102Z,100554.16
2022-12-01T00:12:06.450Z,100556.78
2022-12-01T00:14:38.814Z,100562.94
2022-12-01T00:17:11.696Z,100553.41
2022-12-01T00:19:42.177Z,100566.38
2022-12-01T00:22:12.417Z,100566.44
2022-12-01T00:24:45.124Z,100563.13
2022-12-01T00:27:15.430Z,100556.22
2022-12-01T00:29:45.618Z,100559.59
2022-12-01T00:32:18.229Z,100552.72
2022-12-01T00:34:48.301Z,100550.13
2022-12-01T00:37:21.505Z,100551.03
2022-12-01T00:39:56.501Z,100550.16
2022-12-01T00:42:26.707Z,100552.03
2022-12-01T00:44:59.986Z,100551.25
2022-12-01T00:47:31.671Z,100547.91
2022-12-01T00:50:04.979Z,100548.91
2022-12-01T00:52:38.021Z,100545.50
2022-12-01T00:55:13.707Z,100541.25
2022-12-01T00:57:43.887Z,100542.16
2022-12-01T01:00:19.673Z,100549.09
2022-12-01T01:02:52.875Z,100543.84
2022-12-01T01:05:23.515Z,100537.81
2022-12-01T01:07:53.759Z,100543.94
2022-12-01T01:10:36.631Z,100544.94
2022-12-01T01:13:06.708Z,100550.28
2022-12-01T01:15:37.073Z,100553.75
2022-12-01T01:18:12.384Z,100554.72
2022-12-01T01:20:42.781Z,100549.69
2022-12-01T01:23:12.911Z,100548.84
2022-12-01T01:25:48.015Z,100553.94
2022-12-01T01:28:18.657Z,100554.09
2022-12-01T01:30:51.691Z,100547.25
2022-12-01T01:33:22.167Z,100551.59
2022-12-01T01:35:54.416Z,100530.44
2022-12-01T01:38:24.675Z,100549.88
2022-12-01T01:41:03.489Z,100555.97
2022-12-01T01:43:48.474Z,100557.00
2022-12-01T01:46:23.530Z,100560.59
2022-12-01T01:48:57.627Z,100552.06
2022-12-01T01:51:31.222Z,100555.47
2022-12-01T01:54:05.547Z,100549.56
2022-12-01T01:56:39.410Z,100559.06
2022-12-01T01:59:10.466Z,100559.06
2022-12-01T02:01:40.669Z,100567.75
2022-12-01T02:04:11.236Z,100573.03
2022-12-01T02:06:41.377Z,100576.53
2022-12-01T02:09:13.454Z,100583.38
2022-12-01T02:12:11.560Z,100585.97
2022-12-01T02:15:06.577Z,100579.09
2022-12-01T02:17:43.311Z,100584.31
2022-12-01T02:20:35.346Z,100589.50
2022-12-01T02:23:27.889Z,100590.56
2022-12-01T02:26:19.160Z,100595.00
2022-12-01T02:29:09.479Z,100598.41
2022-12-01T02:31:49.499Z,100598.44
2022-12-01T02:34:28.048Z,100587.69
2022-12-01T02:37:03.365Z,100604.97
2022-12-01T02:39:38.281Z,100594.66
2022-12-01T02:42:35.629Z,100603.19
2022-12-01T02:45:09.828Z,100602.31
2022-12-01T02:47:45.287Z,100597.97
2022-12-01T02:50:16.448Z,100603.13
2022-12-01T02:52:49.709Z,100602.19
2022-12-01T02:55:19.804Z,100591.03
2022-12-01T02:57:50.224Z,100588.38
2022-12-01T03:00:21.497Z,100584.06
2022-12-01T03:03:24.600Z,100584.03
2022-12-01T03:06:02.200Z,100582.06
2022-12-01T03:08:46.205Z,100570.69
2022-12-01T03:11:29.800Z,100575.81
2022-12-01T03:14:11.944Z,100571.34
2022-12-01T03:16:52.630Z,100565.25
2022-12-01T03:19:35.998Z,100551.44
2022-12-01T03:22:16.035Z,100567.38
2022-12-01T03:24:50.996Z,100568.38
2022-12-01T03:27:28.208Z,100573.47
2022-12-01T03:30:04.940Z,100576.09
2022-12-01T03:32:41.574Z,100571.75
2022-12-01T03:35:19.173Z,100572.50
2022-12-01T03:37:54.429Z,100571.53
2022-12-01T03:40:28.784Z,100574.78
2022-12-01T03:43:02.675Z,100568.47
2022-12-01T03:45:44.125Z,100564.34
2022-12-01T03:48:23.009Z,100567.00
2022-12-01T03:51:08.900Z,100562.84
2022-12-01T03:53:48.952Z,100552.50
2022-12-01T03:56:23.278Z,100562.75
2022-12-01T03:58:59.551Z,100559.34
2022-12-01T04:01:36.463Z,100550.09
2022-12-01T04:04:08.683Z,100544.16
2022-12-01T04:06:43.206Z,100550.28
2022-12-01T04:09:13.592Z,100548.59
2022-12-01T04:11:58.662Z,100544.41
2022-12-01T04:14:32.195Z,100538.47
2022-12-01T04:17:05.117Z,100546.47
2022-12-01T04:19:37.589Z,100536.25
2022-12-01T04:22:13.239Z,100537.16
2022-12-01T04:24:45.644Z,100536.25
2022-12-01T04:27:16.482Z,100544.13
2022-12-01T04:29:47.592Z,100543.34
2022-12-01T04:32:24.456Z,100551.16
2022-12-01T04:34:56.879Z,100544.94
2022-12-01T04:37:29.682Z,100534.47
2022-12-01T04:39:59.775Z,100537.91
2022-12-01T04:42:30.103Z,100543.16
2022-12-01T04:45:00.306Z,100532.78
2022-12-01T04:47:30.551Z,100539.75
2022-12-01T04:50:00.683Z,100536.34
2022-12-01T04:52:35.409Z,100537.25
2022-12-01T04:55:08.999Z,100543.34
2022-12-01T04:57:39.671Z,100544.22
2022-12-01T05:00:13.831Z,100545.97
2022-12-01T05:02:44.184Z,100547.75
2022-12-01T05:05:14.931Z,100551.38
2022-12-01T05:07:48.789Z,100554.03
2022-12-01T05:10:21.967Z,100559.19
2022-12-01T05:12:52.523Z,100558.56
2022-12-01T05:15:22.540Z,100562.94
2022-12-01T05:17:55.291Z,100563.03
2022-12-01T05:20:40.213Z,100559.63
2022-12-01T05:23:17.210Z,100557.97
2022-12-01T05:25:50.416Z,100554.66
2022-12-01T05:28:27.178Z,100529.97
2022-12-01T05:31:01.121Z,100546.91
2022-12-01T05:33:31.711Z,100552.09
2022-12-01T05:36:02.101Z,100559.16
2022-12-01T05:38:34.810Z,100552.19
2022-12-01T05:41:05.047Z,100550.59
2022-12-01T05:43:35.130Z,100553.19
2022-12-01T05:46:05.799Z,100552.47
2022-12-01T05:48:35.849Z,100560.25
2022-12-01T05:51:14.075Z,100558.53
2022-12-01T05:53:49.767Z,100559.34
2022-12-01T05:56:21.989Z,100554.13
2022-12-01T05:58:55.088Z,100554.13
2022-12-01T06:01:25.231Z,100555.91
2022-12-01T06:03:56.488Z,100561.06
2022-12-01T06:06:26.630Z,100561.06
2022-12-01T06:08:59.248Z,100559.28
2022-12-01T06:11:31.577Z,100553.16
2022-12-01T06:14:09.019Z,100570.25
2022-12-01T06:16:41.492Z,100554.69
2022-12-01T06:19:14.172Z,100569.19
2022-12-01T06:21:46.347Z,100568.06
2022-12-01T06:24:19.247Z,100566.03
2022-12-01T06:26:51.980Z,100570.97
2022-12-01T06:29:22.145Z,100573.28
2022-12-01T06:31:55.177Z,100573.66
2022-12-01T06:34:25.413Z,100563.78
2022-12-01T06:36:57.474Z,100574.59
2022-12-01T06:39:30.775Z,100571.50
2022-12-01T06:42:00.894Z,100574.47
2022-12-01T06:44:31.760Z,100572.81
2022-12-01T06:47:01.947Z,100573.13
2022-12-01T06:49:32.255Z,100570.59
2022-12-01T06:52:02.444Z,100577.91
2022-12-01T06:54:39.757Z,100584.25
2022-12-01T06:57:12.423Z,100572.72
2022-12-01T06:59:42.798Z,100583.13
2022-12-01T07:02:14.036Z,100579.31
2022-12-01T07:04:44.920Z,100586.31
2022-12-01T07:07:15.082Z,100583.34
2022-12-01T07:09:51.377Z,100581.84
2022-12-01T07:12:26.931Z,100583.50
2022-12-01T07:14:58.185Z,100588.31
2022-12-01T07:17:28.227Z,100585.38
2022-12-01T07:19:58.407Z,100582.78
2022-12-01T07:22:32.654Z,100586.56
2022-12-01T07:25:09.987Z,100586.13
2022-12-01T07:27:40.596Z,100585.09
2022-12-01T07:30:12.051Z,100587.91
2022-12-01T07:32:43.504Z,100587.53
2022-12-01T07:35:13.583Z,100583.84
2022-12-01T07:37:45.928Z,100587.50
2022-12-01T07:40:19.043Z,100591.72
2022-12-01T07:42:49.112Z,100592.66
2022-12-01T07:45:19.369Z,100584.88
2022-12-01T07:47:49.509Z,100583.59
2022-12-01T07:50:19.748Z,100580.38
2022-12-01T07:52:52.604Z,100583.41
2022-12-01T07:55:25.291Z,100586.72
2022-12-01T07:57:55.377Z,100577.56
2022-12-01T08:00:26.268Z,100580.78
2022-12-01T08:02:56.750Z,100587.03
2022-12-01T08:05:27.684Z,100577.69
2022-12-01T08:07:58.591Z,100585.09
2022-12-01T08:10:33.622Z,100582.41
2022-12-01T08:13:03.731Z,100582.25
2022-12-01T08:15:33.942Z,100588.00
2022-12-01T08:18:07.846Z,100593.28
2022-12-01T08:20:37.738Z,100587.19
2022-12-01T08:23:08.391Z,100592.47
2022-12-01T08:25:41.127Z,100597.06
2022-12-01T08:28:11.221Z,100597.88
2022-12-01T08:30:44.774Z,100595.50
2022-12-01T08:33:14.941Z,100556.00
2022-12-01T08:35:49.568Z,100591.06
2022-12-01T08:38:19.895Z,100589.97
2022-12-01T08:40:52.669Z,100590.78
2022-12-01T08:43:49.435Z,100591.56
2022-12-01T08:46:21.640Z,100589.31
2022-12-01T08:48:51.891Z,100592.91
2022-12-01T08:51:25.216Z,100584.25
2022-12-01T08:53:58.275Z,100589.69
2022-12-01T08:56:34.781Z,100591.00
2022-12-01T08:59:05.906Z,100580.88
2022-12-01T09:01:52.151Z,100586.31
2022-12-01T09:04:23.525Z,100595.78
2022-12-01T09:06:57.635Z,100587.91
2022-12-01T09:09:30.094Z,100573.34
2022-12-01T09:12:03.424Z,100576.47
2022-12-01T09:14:33.474Z,100575.78
2022-12-01T09:17:03.637Z,100574.94
2022-12-01T09:19:34.015Z,100578.56
2022-12-01T09:22:04.676Z,100568.81
2022-12-01T09:24:37.482Z,100558.81
2022-12-01T09:27:22.757Z,100555.56
2022-12-01T09:29:55.808Z,100564.47
2022-12-01T09:32:26.201Z,100558.28
2022-12-01T09:34:56.293Z,100559.38
2022-12-01T09:37:29.140Z,100547.72
2022-12-01T09:39:59.258Z,100544.47
2022-12-01T09:42:35.791Z,100546.84
2022-12-01T09:45:10.099Z,100532.97
2022-12-01T09:47:42.755Z,100530.91
2022-12-01T09:50:18.882Z,100525.88
2022-12-01T09:52:53.337Z,100526.53
2022-12-01T09:55:26.112Z,100523.06
2022-12-01T09:58:01.288Z,100524.75
2022-12-01T10:00:36.950Z,100523.81
2022-12-01T10:03:24.927Z,100516.00
2022-12-01T10:09:01.456Z,100505.47
2022-12-01T10:11:38.785Z,100498.28
2022-12-01T10:14:20.858Z,100501.22
2022-12-01T10:17:03.679Z,100489.84
2022-12-01T10:19:42.118Z,100493.44
2022-12-01T10:22:27.005Z,100489.56
2022-12-01T10:25:09.911Z,100489.84
2022-12-01T10:27:51.410Z,100483.53
2022-12-01T10:30:26.752Z,100479.94
2022-12-01T10:33:01.437Z,100482.81
2022-12-01T10:35:37.259Z,100473.84
2022-12-01T10:38:18.209Z,100479.53
2022-12-01T10:40:50.864Z,100474.69
2022-12-01T10:43:20.911Z,100468.56
2022-12-01T10:45:57.001Z,100462.22
2022-12-01T10:48:32.320Z,100468.13
2022-12-01T10:51:20.269Z,100458.69
2022-12-01T10:53:50.333Z,100462.44
2022-12-01T10:56:23.305Z,100463.19
2022-12-01T10:58:55.413Z,100457.13
2022-12-01T11:01:35.796Z,100453.34
2022-12-01T11:04:11.333Z,100452.59
2022-12-01T11:06:41.416Z,100448.81
2022-12-01T11:09:26.900Z,100457.97
2022-12-01T11:11:59.833Z,100449.38
2022-12-01T11:14:40.147Z,100445.59
2022-12-01T11:17:29.911Z,100441.13
2022-12-01T11:20:00.308Z,100431.25
2022-12-01T11:22:40.121Z,100438.22
2022-12-01T11:25:23.122Z,100439.06
2022-12-01T11:28:01.924Z,100437.66
2022-12-01T11:30:37.666Z,100432.66
2022-12-01T11:33:18.540Z,100444.16
2022-12-01T11:35:51.903Z,100432.41
2022-12-01T11:38:32.958Z,100430.38
2022-12-01T11:41:06.568Z,100430.19
2022-12-01T11:43:47.663Z,100433.78
2022-12-01T11:46:33.183Z,100426.69
2022-12-01T11:49:06.718Z,100427.19
2022-12-01T11:51:40.010Z,100434.94
2022-12-01T11:54:20.452Z,100438.94
2022-12-01T11:57:17.486Z,100422.06
2022-12-01T11:59:42.308Z,100432.63
2022-12-01T12:02:26.932Z,100434.31
2022-12-01T12:05:37.193Z,100439.56
2022-12-01T12:08:18.280Z,100432.00
2022-12-01T12:11:02.778Z,100427.56
2022-12-01T12:13:55.057Z,100434.53
2022-12-01T12:16:35.926Z,100429.44
2022-12-01T12:19:33.692Z,100426.47
2022-12-01T12:22:24.754Z,100420.81
2022-12-01T12:25:05.541Z,100428.59
2022-12-01T12:27:49.877Z,100425.13
2022-12-01T12:30:26.381Z,100429.00
2022-12-01T12:33:23.145Z,100434.00
2022-12-01T12:36:03.290Z,100432.41
2022-12-01T12:38:49.033Z,100440.03
2022-12-01T12:41:31.505Z,100424.16
2022-12-01T12:44:36.641Z,100426.03
2022-12-01T12:47:22.311Z,100431.00
2022-12-01T12:50:01.828Z,100430.59
2022-12-01T12:52:40.822Z,100430.38
2022-12-01T12:55:22.930Z,100436.28
2022-12-01T12:57:57.010Z,100439.88
2022-12-01T13:00:29.326Z,100440.50
2022-12-01T13:03:06.363Z,100434.78
2022-12-01T13:05:44.335Z,100436.19
2022-12-01T13:08:19.054Z,100429.88
2022-12-01T13:11:00.840Z,100434.44
2022-12-01T13:13:37.702Z,100434.84
2022-12-01T13:16:16.267Z,100436.97
2022-12-01T13:18:50.552Z,100438.03
2022-12-01T13:21:24.056Z,100440.84
2022-12-01T13:23:55.471Z,100438.72
2022-12-01T13:26:28.634Z,100451.56
2022-12-01T13:29:00.807Z,100444.75
2022-12-01T13:31:34.086Z,100452.75
2022-12-01T13:34:08.873Z,100431.63
2022-12-01T13:36:46.733Z,100457.13
2022-12-01T13:39:22.743Z,100463.25
2022-12-01T13:42:10.537Z,100456.59
2022-12-01T13:44:45.834Z,100458.00
2022-12-01T13:47:35.754Z,100459.66
2022-12-01T13:50:35.573Z,100456.84
2022-12-01T13:53:38.634Z,100463.94
2022-12-01T13:56:28.143Z,100458.66
2022-12-01T13:59:01.239Z,100464.22
2022-12-01T14:01:52.182Z,100467.66
2022-12-01T14:04:37.327Z,100460.66
2022-12-01T14:07:29.601Z,100463.34
2022-12-01T14:10:32.026Z,100455.38
2022-12-01T14:13:12.611Z,100459.19
2022-12-01T14:15:46.167Z,100460.69
2022-12-01T14:18:35.998Z,100458.94
2022-12-01T14:21:11.411Z,100460.31
2022-12-01T14:24:01.156Z,100457.56
2022-12-01T14:26:34.830Z,100451.16
2022-12-01T14:29:26.899Z,100459.22
2022-12-01T14:32:26.809Z,100468.28
2022-12-01T14:35:15.716Z,100467.00
2022-12-01T14:37:53.437Z,100467.63
2022-12-01T14:40:31.058Z,100467.47
2022-12-01T14:43:17.377Z,100464.25
2022-12-01T14:46:04.364Z,100466.63
2022-12-01T14:48:40.514Z,100463.72
2022-12-01T14:51:30.085Z,100471.81
2022-12-01T14:54:02.564Z,100462.94
2022-12-01T14:56:39.392Z,100464.34
2022-12-01T14:59:18.622Z,100462.31
2022-12-01T15:01:51.554Z,100467.91
2022-12-01T15:04:22.243Z,100459.78
2022-12-01T15:06:59.551Z,100458.66
2022-12-01T15:09:34.616Z,100469.50
2022-12-01T15:12:07.981Z,100461.28
2022-12-01T15:14:40.355Z,100461.06
2022-12-01T15:17:10.479Z,100462.19
2022-12-01T15:19:44.166Z,100464.28
2022-12-01T15:22:23.289Z,100455.19
2022-12-01T15:24:53.412Z,100459.81
2022-12-01T15:27:29.687Z,100451.72
2022-12-01T15:30:04.938Z,100463.25
2022-12-01T15:32:42.745Z,100461.91
2022-12-01T15:35:21.480Z,100460.53
2022-12-01T15:37:55.360Z,100464.34
2022-12-01T15:41:13.280Z,100464.72
2022-12-01T15:43:21.798Z,100464.47
2022-12-01T15:45:59.453Z,100462.97
2022-12-01T15:48:34.384Z,100462.31
2022-12-01T15:51:11.421Z,100466.78
2022-12-01T15:53:50.811Z,100466.06
2022-12-01T15:56:27.996Z,100474.94
2022-12-01T15:59:03.588Z,100468.34
2022-12-01T16:01:39.977Z,100473.69
2022-12-01T16:04:20.547Z,100469.59
2022-12-01T16:07:01.184Z,100473.25
2022-12-01T16:09:38.605Z,100477.00
2022-12-01T16:12:22.864Z,100469.38
2022-12-01T16:14:57.054Z,100477.34
2022-12-01T16:17:28.229Z,100476.75
2022-12-01T16:20:26.871Z,100473.44
2022-12-01T16:23:00.020Z,100471.78
2022-12-01T16:25:43.579Z,100476.41
2022-12-01T16:28:25.273Z,100486.16
2022-12-01T16:30:58.445Z,100488.13
2022-12-01T16:33:30.565Z,100490.06
2022-12-01T16:36:07.079Z,100485.97
2022-12-01T16:38:42.752Z,100485.28
2022-12-01T16:41:38.299Z,100495.84
2022-12-01T16:44:28.132Z,100463.47
2022-12-01T16:46:59.261Z,100481.41
2022-12-01T16:49:35.054Z,100482.19
2022-12-01T16:52:42.502Z,100493.53
2022-12-01T16:54:58.598Z,100493.66
2022-12-01T16:57:38.262Z,100496.31
2022-12-01T17:00:11.260Z,100497.38
2022-12-01T17:02:43.653Z,100500.09
2022-12-01T17:05:16.747Z,100498.56
2022-12-01T17:07:54.603Z,100503.75
2022-12-01T17:10:27.404Z,100496.25
2022-12-01T17:13:02.931Z,100503.03
2022-12-01T17:15:36.472Z,100503.03
2022-12-01T17:18:12.022Z,100511.72
2022-12-01T17:20:44.738Z,100513.59
2022-12-01T17:23:15.106Z,100509.41
2022-12-01T17:25:45.479Z,100519.78
2022-12-01T17:28:18.156Z,100518.06
2022-12-01T17:30:48.354Z,100515.59
2022-12-01T17:33:19.675Z,100511.47
2022-12-01T17:35:52.832Z,100513.16
2022-12-01T17:38:24.175Z,100513.16
2022-12-01T17:41:03.366Z,100515.72
2022-12-01T17:43:39.528Z,100515.66
2022-12-01T17:46:13.852Z,100499.41
2022-12-01T17:48:47.307Z,100514.75
2022-12-01T17:51:18.212Z,100507.88
2022-12-01T17:53:48.309Z,100514.06
2022-12-01T17:56:20.735Z,100514.91
2022-12-01T17:58:55.038Z,100511.56
2022-12-01T18:01:30.006Z,100516.78
2022-12-01T18:04:01.339Z,100515.53
2022-12-01T18:06:31.555Z,100511.41
2022-12-01T18:09:02.949Z,100516.84
2022-12-01T18:11:34.246Z,100506.94
2022-12-01T18:14:07.060Z,100526.91
2022-12-01T18:16:38.604Z,100523.75
2022-12-01T18:19:12.828Z,100518.66
2022-12-01T18:21:45.763Z,100519.69
2022-12-01T18:24:18.700Z,100524.97
2022-12-01T18:26:48.904Z,100519.81
2022-12-01T18:29:28.819Z,100516.41
2022-12-01T18:31:59.764Z,100513.28
2022-12-01T18:34:31.250Z,100520.88
2022-12-01T18:37:01.374Z,100520.94
2022-12-01T18:39:31.876Z,100506.50
2022-12-01T18:42:02.150Z,100524.63
2022-12-01T18:44:43.285Z,100521.22
2022-12-01T18:47:16.464Z,100528.44
2022-12-01T18:49:47.111Z,100513.03
2022-12-01T18:52:20.144Z,100514.00
2022-12-01T18:54:53.240Z,100514.16
2022-12-01T18:57:23.453Z,100501.47
2022-12-01T18:59:59.038Z,100513.41
2022-12-01T19:02:32.228Z,100515.16
2022-12-01T19:05:02.643Z,100515.22
2022-12-01T19:07:33.840Z,100512.56
2022-12-01T19:10:06.540Z,100518.66
2022-12-01T19:12:41.019Z,100514.16
2022-12-01T19:15:22.849Z,100520.16
2022-12-01T19:17:54.650Z,100522.69
2022-12-01T19:20:24.737Z,100522.75
2022-12-01T19:22:55.213Z,100517.66
2022-12-01T19:25:25.431Z,100516.91
2022-12-01T19:27:55.637Z,100513.56
2022-12-01T19:30:28.479Z,100522.28
2022-12-01T19:32:59.012Z,100527.56
2022-12-01T19:35:30.293Z,100523.59
2022-12-01T19:38:03.683Z,100527.09
2022-12-01T19:40:33.981Z,100536.09
2022-12-01T19:43:09.546Z,100524.28
2022-12-01T19:45:43.835Z,100531.34
2022-12-01T19:48:17.828Z,100529.00
2022-12-01T19:50:47.733Z,100523.00
2022-12-01T19:53:20.893Z,100533.44
2022-12-01T19:55:53.876Z,100524.97
2022-12-01T19:58:25.645Z,100528.63
2022-12-01T20:00:58.437Z,100524.31
2022-12-01T20:03:28.677Z,100537.41
2022-12-01T20:06:06.163Z,100534.88
2022-12-01T20:08:36.728Z,100540.16
2022-12-01T20:11:10.275Z,100529.00
2022-12-01T20:13:42.149Z,100539.38
2022-12-01T20:16:17.512Z,100533.31
2022-12-01T20:18:48.006Z,100532.47
2022-12-01T20:21:20.748Z,100538.50
2022-12-01T20:23:53.166Z,100538.50
2022-12-01T20:26:28.959Z,100543.66
2022-12-01T20:29:03.362Z,100552.16
2022-12-01T20:31:40.822Z,100554.84
2022-12-01T20:34:13.091Z,100548.06
2022-12-01T20:36:44.864Z,100548.97
2022-12-01T20:39:15.845Z,100548.00
2022-12-01T20:41:48.371Z,100529.28
2022-12-01T20:44:20.354Z,100552.78
2022-12-01T20:46:53.032Z,100544.84
2022-12-01T20:49:30.773Z,100544.78
2022-12-01T20:52:01.936Z,100543.84
2022-12-01T20:54:31.982Z,100550.69
2022-12-01T20:57:02.238Z,100551.50
2022-12-01T20:59:32.469Z,100546.28
2022-12-01T21:02:05.256Z,100552.41
2022-12-01T21:04:35.296Z,100557.59
2022-12-01T21:07:12.592Z,100556.78
2022-12-01T21:09:42.908Z,100550.84
2022-12-01T21:12:29.475Z,100566.66
2022-12-01T21:15:09.098Z,100561.75
2022-12-01T21:17:46.795Z,100567.91
2022-12-01T21:20:25.271Z,100563.78
2022-12-01T21:22:56.530Z,100568.31
2022-12-01T21:25:27.205Z,100563.13
2022-12-01T21:28:02.771Z,100571.81
2022-12-01T21:30:33.973Z,100571.78
2022-12-01T21:33:19.868Z,100564.81
2022-12-01T21:35:53.207Z,100563.84
2022-12-01T21:38:23.597Z,100568.19
2022-12-01T21:40:56.162Z,100559.53
2022-12-01T21:43:33.882Z,100571.34
2022-12-01T21:46:18.035Z,100572.16
2022-12-01T21:48:52.959Z,100570.47
2022-12-01T21:51:30.651Z,100568.63
2022-12-01T21:54:01.233Z,100583.22
2022-12-01T21:56:37.294Z,100549.81
2022-12-01T21:59:18.306Z,100571.13
2022-12-01T22:01:49.884Z,100579.72
2022-12-01T22:04:24.037Z,100579.72
2022-12-01T22:06:56.151Z,100580.53
2022-12-01T22:09:30.186Z,100578.81
2022-12-01T22:12:02.857Z,100582.94
2022-12-01T22:14:45.047Z,100580.28
2022-12-01T22:17:21.469Z,100575.78
2022-12-01T22:19:59.025Z,100579.28
2022-12-01T22:22:30.565Z,100583.69
2022-12-01T22:25:11.830Z,100575.00
2022-12-01T22:27:44.075Z,100575.00
2022-12-01T22:30:20.451Z,100574.16
2022-12-01T22:33:01.534Z,100571.34
2022-12-01T22:35:48.633Z,100572.25
2022-12-01T22:38:24.720Z,100565.28
2022-12-01T22:40:59.967Z,100570.53
2022-12-01T22:43:43.158Z,100572.25
2022-12-01T22:46:39.843Z,100568.00
2022-12-01T22:49:20.365Z,100559.25
2022-12-01T22:51:53.712Z,100555.91
2022-12-01T22:54:40.483Z,100562.88
2022-12-01T22:57:31.234Z,100549.88
2022-12-01T23:00:04.490Z,100550.13
2022-12-01T23:02:37.322Z,100546.91
2022-12-01T23:05:21.978Z,100547.88
2022-12-01T23:07:56.290Z,100545.47
2022-12-01T23:10:28.252Z,100555.09
2022-12-01T23:13:02.418Z,100552.59
2022-12-01T23:15:36.436Z,100546.63
2022-12-01T23:18:14.672Z,100547.56
2022-12-01T23:20:46.471Z,100545.97
2022-12-01T23:23:21.458Z,100541.75
2022-12-01T23:25:54.207Z,100547.06
2022-12-01T23:28:30.127Z,100535.16
2022-12-01T23:31:03.694Z,100542.84
2022-12-01T23:33:37.632Z,100543.78
2022-12-01T23:36:19.333Z,100540.34
2022-12-01T23:38:54.680Z,100537.75
2022-12-01T23:41:36.136Z,100539.63
2022-12-01T23:44:14.820Z,100544.00
2022-12-01T23:46:45.095Z,100533.91
2022-12-01T23:49:18.951Z,100542.50
2022-12-01T23:51:52.156Z,100553.78
2022-12-01T23:54:29.963Z,100551.38
2022-12-01T23:57:05.335Z,100553.97
2022-12-01T23:59:35.497Z,100546.31
